sensor_id;sensor_type;location;lat;lon;timestamp;P1;durP1;ratioP1;P2;durP2;ratioP2
53409;SDS011;66590;50.734;4.246;2023-02-01T00:01:06;39.85;;;17.30;;
53409;SDS011;66590;50.734;4.246;2023-02-01T00:03:33;39.35;;;15.88;;
53409;SDS011;66590;50.734;4.246;2023-02-01T00:06:02;38.60;;;20.08;;
53409;SDS011;66590;50.734;4.246;2023-02-01T00:08:29;30.38;;;15.13;;
53409;SDS011;66590;50.734;4.246;2023-02-01T00:11:01;35.30;;;15.55;;
53409;SDS011;66590;50.734;4.246;2023-02-01T00:13:30;32.92;;;15.20;;
53409;SDS011;66590;50.734;4.246;2023-02-01T00:16:05;35.10;;;14.13;;
53409;SDS011;66590;50.734;4.246;2023-02-01T00:18:33;28.63;;;13.05;;
53409;SDS011;66590;50.734;4.246;2023-02-01T00:21:01;40.85;;;14.63;;
53409;SDS011;66590;50.734;4.246;2023-02-01T00:23:28;30.27;;;13.25;;
53409;SDS011;66590;50.734;4.246;2023-02-01T00:26:00;32.53;;;13.38;;
53409;SDS011;66590;50.734;4.246;2023-02-01T00:28:28;33.05;;;14.10;;
53409;SDS011;66590;50.734;4.246;2023-02-01T00:30:55;31.75;;;13.55;;
53409;SDS011;66590;50.734;4.246;2023-02-01T00:33:23;28.90;;;13.38;;
53409;SDS011;66590;50.734;4.246;2023-02-01T00:35:50;28.30;;;12.98;;
53409;SDS011;66590;50.734;4.246;2023-02-01T00:38:17;28.05;;;11.80;;
53409;SDS011;66590;50.734;4.246;2023-02-01T00:40:44;29.45;;;12.07;;
53409;SDS011;66590;50.734;4.246;2023-02-01T00:43:13;29.40;;;10.70;;
53409;SDS011;66590;50.734;4.246;2023-02-01T00:45:40;27.23;;;9.98;;
53409;SDS011;66590;50.734;4.246;2023-02-01T00:48:07;30.35;;;10.23;;
53409;SDS011;66590;50.734;4.246;2023-02-01T00:50:40;25.90;;;11.00;;
53409;SDS011;66590;50.734;4.246;2023-02-01T00:53:13;35.72;;;10.52;;
53409;SDS011;66590;50.734;4.246;2023-02-01T00:55:40;24.15;;;10.80;;
53409;SDS011;66590;50.734;4.246;2023-02-01T00:58:10;23.08;;;9.98;;
53409;SDS011;66590;50.734;4.246;2023-02-01T01:00:39;33.42;;;9.65;;
53409;SDS011;66590;50.734;4.246;2023-02-01T01:03:10;34.28;;;9.52;;
53409;SDS011;66590;50.734;4.246;2023-02-01T01:05:37;25.30;;;9.40;;
53409;SDS011;66590;50.734;4.246;2023-02-01T01:08:05;25.33;;;8.65;;
53409;SDS011;66590;50.734;4.246;2023-02-01T01:10:37;25.98;;;7.65;;
53409;SDS011;66590;50.734;4.246;2023-02-01T01:13:24;20.83;;;7.22;;
53409;SDS011;66590;50.734;4.246;2023-02-01T01:15:52;30.13;;;7.85;;
53409;SDS011;66590;50.734;4.246;2023-02-01T01:18:20;18.13;;;5.72;;
53409;SDS011;66590;50.734;4.246;2023-02-01T01:20:47;21.25;;;5.60;;
53409;SDS011;66590;50.734;4.246;2023-02-01T01:23:14;21.13;;;6.85;;
53409;SDS011;66590;50.734;4.246;2023-02-01T01:25:41;19.60;;;5.15;;
53409;SDS011;66590;50.734;4.246;2023-02-01T01:28:08;19.98;;;4.72;;
53409;SDS011;66590;50.734;4.246;2023-02-01T01:30:37;22.48;;;5.38;;
53409;SDS011;66590;50.734;4.246;2023-02-01T01:33:09;18.20;;;4.97;;
53409;SDS011;66590;50.734;4.246;2023-02-01T01:35:36;21.55;;;5.95;;
53409;SDS011;66590;50.734;4.246;2023-02-01T01:38:03;21.75;;;6.22;;
53409;SDS011;66590;50.734;4.246;2023-02-01T01:40:30;18.33;;;5.57;;
53409;SDS011;66590;50.734;4.246;2023-02-01T01:42:58;18.88;;;5.40;;
53409;SDS011;66590;50.734;4.246;2023-02-01T01:45:25;18.33;;;5.45;;
53409;SDS011;66590;50.734;4.246;2023-02-01T01:47:54;16.23;;;5.20;;
53409;SDS011;66590;50.734;4.246;2023-02-01T01:50:33;19.95;;;5.55;;
53409;SDS011;66590;50.734;4.246;2023-02-01T01:53:04;22.73;;;5.20;;
53409;SDS011;66590;50.734;4.246;2023-02-01T01:55:35;19.20;;;6.50;;
53409;SDS011;66590;50.734;4.246;2023-02-01T01:58:08;23.42;;;6.00;;
53409;SDS011;66590;50.734;4.246;2023-02-01T02:00:37;16.75;;;5.38;;
53409;SDS011;66590;50.734;4.246;2023-02-01T02:03:06;20.98;;;5.82;;
53409;SDS011;66590;50.734;4.246;2023-02-01T02:05:43;18.45;;;4.90;;
53409;SDS011;66590;50.734;4.246;2023-02-01T02:08:12;10.75;;;3.45;;
53409;SDS011;66590;50.734;4.246;2023-02-01T02:10:39;17.63;;;5.45;;
53409;SDS011;66590;50.734;4.246;2023-02-01T02:13:06;22.50;;;5.75;;
53409;SDS011;66590;50.734;4.246;2023-02-01T02:15:33;23.55;;;5.38;;
53409;SDS011;66590;50.734;4.246;2023-02-01T02:18:05;21.17;;;5.40;;
53409;SDS011;66590;50.734;4.246;2023-02-01T02:20:47;17.98;;;4.65;;
53409;SDS011;66590;50.734;4.246;2023-02-01T02:23:49;18.13;;;4.63;;
53409;SDS011;66590;50.734;4.246;2023-02-01T02:26:51;17.33;;;5.38;;
53409;SDS011;66590;50.734;4.246;2023-02-01T02:29:42;16.67;;;4.78;;
53409;SDS011;66590;50.734;4.246;2023-02-01T02:32:36;17.80;;;4.97;;
53409;SDS011;66590;50.734;4.246;2023-02-01T02:35:20;17.73;;;4.20;;
53409;SDS011;66590;50.734;4.246;2023-02-01T02:37:54;18.95;;;5.15;;
53409;SDS011;66590;50.734;4.246;2023-02-01T02:40:31;11.25;;;3.97;;
53409;SDS011;66590;50.734;4.246;2023-02-01T02:43:04;17.58;;;4.00;;
53409;SDS011;66590;50.734;4.246;2023-02-01T02:45:39;13.98;;;4.00;;
53409;SDS011;66590;50.734;4.246;2023-02-01T02:48:17;18.85;;;3.97;;
53409;SDS011;66590;50.734;4.246;2023-02-01T02:50:51;19.98;;;4.28;;
53409;SDS011;66590;50.734;4.246;2023-02-01T02:53:25;18.25;;;4.60;;
53409;SDS011;66590;50.734;4.246;2023-02-01T02:55:55;17.73;;;4.53;;
53409;SDS011;66590;50.734;4.246;2023-02-01T02:58:23;15.82;;;4.45;;
53409;SDS011;66590;50.734;4.246;2023-02-01T03:00:50;21.50;;;4.30;;
53409;SDS011;66590;50.734;4.246;2023-02-01T03:03:19;13.85;;;3.67;;
53409;SDS011;66590;50.734;4.246;2023-02-01T03:05:46;21.52;;;4.78;;
53409;SDS011;66590;50.734;4.246;2023-02-01T03:08:16;21.27;;;4.53;;
53409;SDS011;66590;50.734;4.246;2023-02-01T03:10:48;12.70;;;3.95;;
53409;SDS011;66590;50.734;4.246;2023-02-01T03:13:24;18.25;;;4.88;;
53409;SDS011;66590;50.734;4.246;2023-02-01T03:15:59;18.35;;;4.35;;
53409;SDS011;66590;50.734;4.246;2023-02-01T03:18:33;17.88;;;4.40;;
53409;SDS011;66590;50.734;4.246;2023-02-01T03:21:05;18.25;;;5.03;;
53409;SDS011;66590;50.734;4.246;2023-02-01T03:23:38;15.73;;;4.20;;
53409;SDS011;66590;50.734;4.246;2023-02-01T03:26:06;13.60;;;3.88;;
53409;SDS011;66590;50.734;4.246;2023-02-01T03:28:36;19.85;;;4.70;;
53409;SDS011;66590;50.734;4.246;2023-02-01T03:31:08;15.90;;;4.72;;
53409;SDS011;66590;50.734;4.246;2023-02-01T03:33:36;19.48;;;5.20;;
53409;SDS011;66590;50.734;4.246;2023-02-01T03:36:13;22.23;;;5.03;;
53409;SDS011;66590;50.734;4.246;2023-02-01T03:38:48;22.65;;;5.07;;
53409;SDS011;66590;50.734;4.246;2023-02-01T03:41:23;18.10;;;4.18;;
53409;SDS011;66590;50.734;4.246;2023-02-01T03:43:58;18.08;;;4.43;;
53409;SDS011;66590;50.734;4.246;2023-02-01T03:46:31;17.65;;;5.22;;
53409;SDS011;66590;50.734;4.246;2023-02-01T03:49:02;14.20;;;4.80;;
53409;SDS011;66590;50.734;4.246;2023-02-01T03:51:35;17.83;;;4.35;;
53409;SDS011;66590;50.734;4.246;2023-02-01T03:54:06;21.73;;;4.30;;
53409;SDS011;66590;50.734;4.246;2023-02-01T03:56:38;18.73;;;4.70;;
53409;SDS011;66590;50.734;4.246;2023-02-01T03:59:08;23.48;;;4.88;;
53409;SDS011;66590;50.734;4.246;2023-02-01T04:01:35;21.10;;;4.80;;
53409;SDS011;66590;50.734;4.246;2023-02-01T04:04:02;18.05;;;4.20;;
53409;SDS011;66590;50.734;4.246;2023-02-01T04:06:30;20.80;;;5.00;;
53409;SDS011;66590;50.734;4.246;2023-02-01T04:08:57;14.10;;;3.92;;
53409;SDS011;66590;50.734;4.246;2023-02-01T04:11:25;16.00;;;4.85;;
53409;SDS011;66590;50.734;4.246;2023-02-01T04:13:52;16.63;;;5.15;;
53409;SDS011;66590;50.734;4.246;2023-02-01T04:16:19;15.80;;;4.50;;
53409;SDS011;66590;50.734;4.246;2023-02-01T04:18:46;25.40;;;5.13;;
53409;SDS011;66590;50.734;4.246;2023-02-01T04:21:13;16.92;;;4.28;;
53409;SDS011;66590;50.734;4.246;2023-02-01T04:23:40;18.63;;;4.43;;
53409;SDS011;66590;50.734;4.246;2023-02-01T04:26:08;18.45;;;3.55;;
53409;SDS011;66590;50.734;4.246;2023-02-01T04:28:36;14.32;;;4.57;;
53409;SDS011;66590;50.734;4.246;2023-02-01T04:31:03;19.85;;;4.47;;
53409;SDS011;66590;50.734;4.246;2023-02-01T04:33:31;16.80;;;4.22;;
53409;SDS011;66590;50.734;4.246;2023-02-01T04:35:58;23.80;;;3.95;;
53409;SDS011;66590;50.734;4.246;2023-02-01T04:38:25;19.10;;;4.65;;
53409;SDS011;66590;50.734;4.246;2023-02-01T04:40:52;19.38;;;4.68;;
53409;SDS011;66590;50.734;4.246;2023-02-01T04:43:20;19.10;;;4.40;;
53409;SDS011;66590;50.734;4.246;2023-02-01T04:45:48;21.80;;;5.85;;
53409;SDS011;66590;50.734;4.246;2023-02-01T04:48:16;17.70;;;4.88;;
53409;SDS011;66590;50.734;4.246;2023-02-01T04:50:48;20.98;;;4.75;;
53409;SDS011;66590;50.734;4.246;2023-02-01T04:53:15;16.83;;;4.55;;
53409;SDS011;66590;50.734;4.246;2023-02-01T04:55:43;26.20;;;5.20;;
53409;SDS011;66590;50.734;4.246;2023-02-01T04:58:11;18.67;;;4.45;;
53409;SDS011;66590;50.734;4.246;2023-02-01T05:00:44;16.35;;;3.70;;
53409;SDS011;66590;50.734;4.246;2023-02-01T05:03:13;16.70;;;4.43;;
53409;SDS011;66590;50.734;4.246;2023-02-01T05:05:41;18.65;;;5.10;;
53409;SDS011;66590;50.734;4.246;2023-02-01T05:08:11;18.67;;;4.35;;
53409;SDS011;66590;50.734;4.246;2023-02-01T05:10:38;19.38;;;4.68;;
53409;SDS011;66590;50.734;4.246;2023-02-01T05:13:05;18.35;;;4.38;;
53409;SDS011;66590;50.734;4.246;2023-02-01T05:15:33;17.17;;;3.90;;
53409;SDS011;66590;50.734;4.246;2023-02-01T05:18:00;15.48;;;3.90;;
53409;SDS011;66590;50.734;4.246;2023-02-01T05:20:29;20.67;;;4.65;;
53409;SDS011;66590;50.734;4.246;2023-02-01T05:22:56;15.93;;;4.57;;
53409;SDS011;66590;50.734;4.246;2023-02-01T05:25:23;20.75;;;5.65;;
53409;SDS011;66590;50.734;4.246;2023-02-01T05:27:50;18.40;;;4.25;;
53409;SDS011;66590;50.734;4.246;2023-02-01T05:30:20;18.30;;;4.32;;
53409;SDS011;66590;50.734;4.246;2023-02-01T05:32:49;22.83;;;4.68;;
53409;SDS011;66590;50.734;4.246;2023-02-01T05:35:16;17.85;;;3.97;;
53409;SDS011;66590;50.734;4.246;2023-02-01T05:37:45;24.08;;;4.82;;
53409;SDS011;66590;50.734;4.246;2023-02-01T05:40:12;23.58;;;4.65;;
53409;SDS011;66590;50.734;4.246;2023-02-01T05:42:39;25.17;;;5.20;;
53409;SDS011;66590;50.734;4.246;2023-02-01T05:45:07;24.33;;;4.80;;
53409;SDS011;66590;50.734;4.246;2023-02-01T05:47:34;22.92;;;4.43;;
53409;SDS011;66590;50.734;4.246;2023-02-01T05:50:02;20.52;;;4.85;;
53409;SDS011;66590;50.734;4.246;2023-02-01T05:52:30;18.63;;;4.55;;
53409;SDS011;66590;50.734;4.246;2023-02-01T05:55:01;16.60;;;4.60;;
53409;SDS011;66590;50.734;4.246;2023-02-01T05:57:28;24.52;;;4.60;;
53409;SDS011;66590;50.734;4.246;2023-02-01T05:59:55;20.52;;;4.80;;
53409;SDS011;66590;50.734;4.246;2023-02-01T06:02:25;21.20;;;4.65;;
53409;SDS011;66590;50.734;4.246;2023-02-01T06:04:52;23.05;;;4.70;;
53409;SDS011;66590;50.734;4.246;2023-02-01T06:07:20;19.10;;;5.00;;
53409;SDS011;66590;50.734;4.246;2023-02-01T06:09:47;21.95;;;5.03;;
53409;SDS011;66590;50.734;4.246;2023-02-01T06:12:20;21.15;;;4.85;;
53409;SDS011;66590;50.734;4.246;2023-02-01T06:14:47;24.88;;;5.38;;
53409;SDS011;66590;50.734;4.246;2023-02-01T06:17:15;19.42;;;4.97;;
53409;SDS011;66590;50.734;4.246;2023-02-01T06:19:42;20.70;;;5.30;;
53409;SDS011;66590;50.734;4.246;2023-02-01T06:22:09;19.90;;;5.07;;
53409;SDS011;66590;50.734;4.246;2023-02-01T06:24:36;24.60;;;5.75;;
53409;SDS011;66590;50.734;4.246;2023-02-01T06:27:03;22.23;;;4.75;;
53409;SDS011;66590;50.734;4.246;2023-02-01T06:29:31;25.50;;;5.47;;
53409;SDS011;66590;50.734;4.246;2023-02-01T06:31:58;20.25;;;5.28;;
53409;SDS011;66590;50.734;4.246;2023-02-01T06:34:26;19.75;;;4.60;;
53409;SDS011;66590;50.734;4.246;2023-02-01T06:36:53;25.52;;;5.70;;
53409;SDS011;66590;50.734;4.246;2023-02-01T06:39:20;21.55;;;4.90;;
53409;SDS011;66590;50.734;4.246;2023-02-01T06:41:50;27.50;;;5.55;;
53409;SDS011;66590;50.734;4.246;2023-02-01T06:44:17;19.52;;;4.68;;
53409;SDS011;66590;50.734;4.246;2023-02-01T06:46:46;22.13;;;5.68;;
53409;SDS011;66590;50.734;4.246;2023-02-01T06:49:13;21.05;;;4.82;;
53409;SDS011;66590;50.734;4.246;2023-02-01T06:51:40;31.48;;;5.55;;
53409;SDS011;66590;50.734;4.246;2023-02-01T06:54:07;24.45;;;4.95;;
53409;SDS011;66590;50.734;4.246;2023-02-01T06:56:37;18.25;;;5.05;;
53409;SDS011;66590;50.734;4.246;2023-02-01T06:59:04;25.15;;;5.00;;
53409;SDS011;66590;50.734;4.246;2023-02-01T07:01:32;17.85;;;3.67;;
53409;SDS011;66590;50.734;4.246;2023-02-01T07:04:01;17.58;;;4.22;;
53409;SDS011;66590;50.734;4.246;2023-02-01T07:06:28;32.22;;;6.32;;
53409;SDS011;66590;50.734;4.246;2023-02-01T07:08:56;17.88;;;4.65;;
53409;SDS011;66590;50.734;4.246;2023-02-01T07:11:23;26.02;;;5.47;;
53409;SDS011;66590;50.734;4.246;2023-02-01T07:13:51;25.00;;;5.65;;
53409;SDS011;66590;50.734;4.246;2023-02-01T07:16:19;22.40;;;4.97;;
53409;SDS011;66590;50.734;4.246;2023-02-01T07:18:49;31.80;;;6.05;;
53409;SDS011;66590;50.734;4.246;2023-02-01T07:21:19;21.95;;;4.93;;
53409;SDS011;66590;50.734;4.246;2023-02-01T07:23:46;27.13;;;5.80;;
53409;SDS011;66590;50.734;4.246;2023-02-01T07:26:13;29.00;;;6.13;;
53409;SDS011;66590;50.734;4.246;2023-02-01T07:28:41;25.45;;;6.05;;
53409;SDS011;66590;50.734;4.246;2023-02-01T07:31:09;23.98;;;5.43;;
53409;SDS011;66590;50.734;4.246;2023-02-01T07:33:38;22.73;;;5.45;;
53409;SDS011;66590;50.734;4.246;2023-02-01T07:36:06;26.55;;;5.68;;
53409;SDS011;66590;50.734;4.246;2023-02-01T07:38:38;22.63;;;5.88;;
53409;SDS011;66590;50.734;4.246;2023-02-01T07:41:06;22.02;;;5.70;;
53409;SDS011;66590;50.734;4.246;2023-02-01T07:43:36;24.85;;;5.95;;
53409;SDS011;66590;50.734;4.246;2023-02-01T07:46:04;24.63;;;5.88;;
53409;SDS011;66590;50.734;4.246;2023-02-01T07:48:32;31.58;;;6.90;;
53409;SDS011;66590;50.734;4.246;2023-02-01T07:51:00;24.38;;;5.97;;
53409;SDS011;66590;50.734;4.246;2023-02-01T07:53:29;25.25;;;5.95;;
53409;SDS011;66590;50.734;4.246;2023-02-01T07:56:01;26.13;;;6.00;;
53409;SDS011;66590;50.734;4.246;2023-02-01T07:58:29;18.58;;;6.13;;
53409;SDS011;66590;50.734;4.246;2023-02-01T08:00:57;28.02;;;6.95;;
53409;SDS011;66590;50.734;4.246;2023-02-01T08:03:24;20.38;;;5.63;;
53409;SDS011;66590;50.734;4.246;2023-02-01T08:05:53;25.60;;;5.95;;
53409;SDS011;66590;50.734;4.246;2023-02-01T08:08:21;24.33;;;5.57;;
53409;SDS011;66590;50.734;4.246;2023-02-01T08:10:48;24.35;;;6.45;;
53409;SDS011;66590;50.734;4.246;2023-02-01T08:13:17;29.02;;;6.68;;
53409;SDS011;66590;50.734;4.246;2023-02-01T08:15:44;23.42;;;6.13;;
53409;SDS011;66590;50.734;4.246;2023-02-01T08:18:11;22.42;;;6.15;;
53409;SDS011;66590;50.734;4.246;2023-02-01T08:20:38;24.98;;;6.72;;
53409;SDS011;66590;50.734;4.246;2023-02-01T08:23:07;22.33;;;5.75;;
53409;SDS011;66590;50.734;4.246;2023-02-01T08:25:34;25.85;;;6.18;;
53409;SDS011;66590;50.734;4.246;2023-02-01T08:28:01;22.00;;;5.10;;
53409;SDS011;66590;50.734;4.246;2023-02-01T08:30:30;24.00;;;6.20;;
53409;SDS011;66590;50.734;4.246;2023-02-01T08:32:57;24.10;;;5.78;;
53409;SDS011;66590;50.734;4.246;2023-02-01T08:35:24;20.92;;;5.43;;
53409;SDS011;66590;50.734;4.246;2023-02-01T08:38:08;23.98;;;6.10;;
53409;SDS011;66590;50.734;4.246;2023-02-01T08:40:35;24.48;;;5.82;;
53409;SDS011;66590;50.734;4.246;2023-02-01T08:43:03;25.94;;;5.56;;
53409;SDS011;66590;50.734;4.246;2023-02-01T08:45:31;18.15;;;4.35;;
53409;SDS011;66590;50.734;4.246;2023-02-01T08:47:58;28.20;;;5.47;;
53409;SDS011;66590;50.734;4.246;2023-02-01T08:50:25;21.17;;;4.38;;
53409;SDS011;66590;50.734;4.246;2023-02-01T08:52:53;20.45;;;5.70;;
53409;SDS011;66590;50.734;4.246;2023-02-01T08:55:20;23.08;;;6.40;;
53409;SDS011;66590;50.734;4.246;2023-02-01T08:57:47;26.10;;;5.80;;
53409;SDS011;66590;50.734;4.246;2023-02-01T09:00:15;23.17;;;6.28;;
53409;SDS011;66590;50.734;4.246;2023-02-01T09:02:44;23.15;;;5.60;;
53409;SDS011;66590;50.734;4.246;2023-02-01T09:05:12;28.08;;;6.18;;
53409;SDS011;66590;50.734;4.246;2023-02-01T09:07:39;19.25;;;4.80;;
53409;SDS011;66590;50.734;4.246;2023-02-01T09:10:06;25.90;;;5.68;;
53409;SDS011;66590;50.734;4.246;2023-02-01T09:12:34;22.85;;;5.43;;
53409;SDS011;66590;50.734;4.246;2023-02-01T09:15:02;20.90;;;4.97;;
53409;SDS011;66590;50.734;4.246;2023-02-01T09:17:30;23.95;;;6.10;;
53409;SDS011;66590;50.734;4.246;2023-02-01T09:19:58;16.33;;;4.35;;
53409;SDS011;66590;50.734;4.246;2023-02-01T09:22:25;25.33;;;5.63;;
53409;SDS011;66590;50.734;4.246;2023-02-01T09:24:52;45.22;;;6.50;;
53409;SDS011;66590;50.734;4.246;2023-02-01T09:27:21;16.05;;;4.07;;
53409;SDS011;66590;50.734;4.246;2023-02-01T09:29:48;25.55;;;5.75;;
53409;SDS011;66590;50.734;4.246;2023-02-01T09:32:15;18.40;;;4.70;;
53409;SDS011;66590;50.734;4.246;2023-02-01T09:34:42;22.80;;;5.35;;
53409;SDS011;66590;50.734;4.246;2023-02-01T09:37:11;19.27;;;5.53;;
53409;SDS011;66590;50.734;4.246;2023-02-01T09:39:41;22.05;;;5.28;;
53409;SDS011;66590;50.734;4.246;2023-02-01T09:42:14;22.15;;;5.22;;
53409;SDS011;66590;50.734;4.246;2023-02-01T09:45:03;20.75;;;5.03;;
53409;SDS011;66590;50.734;4.246;2023-02-01T09:47:46;23.58;;;5.35;;
53409;SDS011;66590;50.734;4.246;2023-02-01T09:50:18;14.82;;;4.53;;
53409;SDS011;66590;50.734;4.246;2023-02-01T09:52:52;20.98;;;4.50;;
53409;SDS011;66590;50.734;4.246;2023-02-01T09:55:26;10.30;;;3.42;;
53409;SDS011;66590;50.734;4.246;2023-02-01T09:58:01;20.10;;;5.28;;
53409;SDS011;66590;50.734;4.246;2023-02-01T10:00:30;15.63;;;4.50;;
53409;SDS011;66590;50.734;4.246;2023-02-01T10:03:01;18.27;;;4.07;;
53409;SDS011;66590;50.734;4.246;2023-02-01T10:05:34;15.23;;;3.85;;
53409;SDS011;66590;50.734;4.246;2023-02-01T10:08:12;18.17;;;4.70;;
53409;SDS011;66590;50.734;4.246;2023-02-01T10:10:50;15.45;;;4.60;;
53409;SDS011;66590;50.734;4.246;2023-02-01T10:13:21;17.08;;;4.88;;
53409;SDS011;66590;50.734;4.246;2023-02-01T10:16:02;15.27;;;4.00;;
53409;SDS011;66590;50.734;4.246;2023-02-01T10:18:43;11.45;;;2.75;;
53409;SDS011;66590;50.734;4.246;2023-02-01T10:21:19;19.98;;;4.10;;
53409;SDS011;66590;50.734;4.246;2023-02-01T10:24:12;13.63;;;4.22;;
53409;SDS011;66590;50.734;4.246;2023-02-01T10:27:01;18.95;;;4.32;;
53409;SDS011;66590;50.734;4.246;2023-02-01T10:29:36;22.55;;;4.15;;
53409;SDS011;66590;50.734;4.246;2023-02-01T10:32:09;15.40;;;4.50;;
53409;SDS011;66590;50.734;4.246;2023-02-01T10:34:42;11.65;;;3.17;;
53409;SDS011;66590;50.734;4.246;2023-02-01T10:37:16;17.45;;;4.07;;
53409;SDS011;66590;50.734;4.246;2023-02-01T10:39:52;10.80;;;3.35;;
53409;SDS011;66590;50.734;4.246;2023-02-01T10:42:24;18.77;;;4.63;;
53409;SDS011;66590;50.734;4.246;2023-02-01T10:44:52;14.55;;;3.33;;
53409;SDS011;66590;50.734;4.246;2023-02-01T10:47:23;12.40;;;3.30;;
53409;SDS011;66590;50.734;4.246;2023-02-01T10:49:52;8.98;;;2.88;;
53409;SDS011;66590;50.734;4.246;2023-02-01T10:52:29;15.98;;;3.72;;
53409;SDS011;66590;50.734;4.246;2023-02-01T10:57:59;16.33;;;3.10;;
53409;SDS011;66590;50.734;4.246;2023-02-01T11:00:28;13.18;;;2.95;;
53409;SDS011;66590;50.734;4.246;2023-02-01T11:03:00;20.27;;;4.25;;
53409;SDS011;66590;50.734;4.246;2023-02-01T11:05:47;12.77;;;2.90;;
53409;SDS011;66590;50.734;4.246;2023-02-01T11:08:15;21.23;;;3.78;;
53409;SDS011;66590;50.734;4.246;2023-02-01T11:10:46;15.93;;;3.53;;
53409;SDS011;66590;50.734;4.246;2023-02-01T11:13:14;9.15;;;2.72;;
53409;SDS011;66590;50.734;4.246;2023-02-01T11:15:43;9.43;;;2.85;;
53409;SDS011;66590;50.734;4.246;2023-02-01T11:18:15;14.75;;;3.50;;
53409;SDS011;66590;50.734;4.246;2023-02-01T11:20:46;17.00;;;3.05;;
53409;SDS011;66590;50.734;4.246;2023-02-01T11:23:14;8.40;;;2.95;;
53409;SDS011;66590;50.734;4.246;2023-02-01T11:25:48;14.02;;;3.45;;
53409;SDS011;66590;50.734;4.246;2023-02-01T11:28:17;13.57;;;2.75;;
53409;SDS011;66590;50.734;4.246;2023-02-01T11:30:47;10.63;;;2.88;;
53409;SDS011;66590;50.734;4.246;2023-02-01T11:33:15;13.93;;;3.70;;
53409;SDS011;66590;50.734;4.246;2023-02-01T11:35:44;11.07;;;3.33;;
53409;SDS011;66590;50.734;4.246;2023-02-01T11:38:17;8.13;;;3.03;;
53409;SDS011;66590;50.734;4.246;2023-02-01T11:40:49;16.33;;;3.73;;
53409;SDS011;66590;50.734;4.246;2023-02-01T11:43:18;15.30;;;2.55;;
53409;SDS011;66590;50.734;4.246;2023-02-01T11:45:53;10.82;;;2.85;;
53409;SDS011;66590;50.734;4.246;2023-02-01T11:48:23;9.40;;;2.70;;
53409;SDS011;66590;50.734;4.246;2023-02-01T11:50:56;11.35;;;2.40;;
53409;SDS011;66590;50.734;4.246;2023-02-01T11:53:39;9.77;;;1.75;;
53409;SDS011;66590;50.734;4.246;2023-02-01T11:56:24;9.20;;;2.30;;
53409;SDS011;66590;50.734;4.246;2023-02-01T11:59:15;12.98;;;2.65;;
53409;SDS011;66590;50.734;4.246;2023-02-01T12:01:57;11.70;;;2.47;;
53409;SDS011;66590;50.734;4.246;2023-02-01T12:04:57;12.75;;;2.28;;
53409;SDS011;66590;50.734;4.246;2023-02-01T12:07:38;7.88;;;2.25;;
53409;SDS011;66590;50.734;4.246;2023-02-01T12:10:19;11.73;;;2.42;;
53409;SDS011;66590;50.734;4.246;2023-02-01T12:12:55;8.45;;;2.03;;
53409;SDS011;66590;50.734;4.246;2023-02-01T12:15:36;13.05;;;2.65;;
53409;SDS011;66590;50.734;4.246;2023-02-01T12:21:26;5.78;;;1.85;;
53409;SDS011;66590;50.734;4.246;2023-02-01T12:24:06;12.98;;;2.63;;
53409;SDS011;66590;50.734;4.246;2023-02-01T12:26:52;12.38;;;3.15;;
53409;SDS011;66590;50.734;4.246;2023-02-01T12:29:34;10.05;;;3.03;;
53409;SDS011;66590;50.734;4.246;2023-02-01T12:32:19;9.25;;;2.35;;
53409;SDS011;66590;50.734;4.246;2023-02-01T12:35:02;9.68;;;2.88;;
53409;SDS011;66590;50.734;4.246;2023-02-01T12:37:59;6.80;;;1.92;;
53409;SDS011;66590;50.734;4.246;2023-02-01T12:40:43;14.13;;;3.00;;
53409;SDS011;66590;50.734;4.246;2023-02-01T12:43:18;9.38;;;2.92;;
53409;SDS011;66590;50.734;4.246;2023-02-01T12:45:51;9.20;;;2.85;;
53409;SDS011;66590;50.734;4.246;2023-02-01T12:48:25;14.40;;;3.05;;
53409;SDS011;66590;50.734;4.246;2023-02-01T12:50:59;9.20;;;1.80;;
53409;SDS011;66590;50.734;4.246;2023-02-01T12:53:30;12.32;;;2.75;;
53409;SDS011;66590;50.734;4.246;2023-02-01T12:56:18;14.15;;;3.22;;
53409;SDS011;66590;50.734;4.246;2023-02-01T12:58:50;7.00;;;2.30;;
53409;SDS011;66590;50.734;4.246;2023-02-01T13:01:21;8.23;;;1.88;;
53409;SDS011;66590;50.734;4.246;2023-02-01T13:03:53;8.48;;;2.05;;
53409;SDS011;66590;50.734;4.246;2023-02-01T13:06:28;9.43;;;2.33;;
53409;SDS011;66590;50.734;4.246;2023-02-01T13:09:00;8.57;;;2.67;;
53409;SDS011;66590;50.734;4.246;2023-02-01T13:11:31;11.27;;;2.28;;
53409;SDS011;66590;50.734;4.246;2023-02-01T13:14:02;9.00;;;2.15;;
53409;SDS011;66590;50.734;4.246;2023-02-01T13:16:37;6.43;;;1.58;;
53409;SDS011;66590;50.734;4.246;2023-02-01T13:19:10;11.32;;;2.55;;
53409;SDS011;66590;50.734;4.246;2023-02-01T13:21:43;11.90;;;1.90;;
53409;SDS011;66590;50.734;4.246;2023-02-01T13:24:31;7.97;;;2.15;;
53409;SDS011;66590;50.734;4.246;2023-02-01T13:27:02;11.43;;;2.83;;
53409;SDS011;66590;50.734;4.246;2023-02-01T13:29:29;8.85;;;2.78;;
53409;SDS011;66590;50.734;4.246;2023-02-01T13:32:02;7.68;;;1.85;;
53409;SDS011;66590;50.734;4.246;2023-02-01T13:37:29;8.88;;;2.20;;
53409;SDS011;66590;50.734;4.246;2023-02-01T13:40:17;9.57;;;1.88;;
53409;SDS011;66590;50.734;4.246;2023-02-01T13:42:53;6.45;;;1.88;;
53409;SDS011;66590;50.734;4.246;2023-02-01T13:45:25;8.63;;;2.03;;
53409;SDS011;66590;50.734;4.246;2023-02-01T13:47:56;8.65;;;2.55;;
53409;SDS011;66590;50.734;4.246;2023-02-01T13:50:26;8.65;;;2.15;;
53409;SDS011;66590;50.734;4.246;2023-02-01T13:52:56;10.35;;;2.28;;
53409;SDS011;66590;50.734;4.246;2023-02-01T13:55:27;8.65;;;2.85;;
53409;SDS011;66590;50.734;4.246;2023-02-01T13:58:00;11.35;;;2.40;;
53409;SDS011;66590;50.734;4.246;2023-02-01T14:00:36;12.98;;;2.40;;
53409;SDS011;66590;50.734;4.246;2023-02-01T14:03:09;14.45;;;3.00;;
53409;SDS011;66590;50.734;4.246;2023-02-01T14:05:57;8.38;;;1.85;;
53409;SDS011;66590;50.734;4.246;2023-02-01T14:08:37;12.50;;;2.28;;
53409;SDS011;66590;50.734;4.246;2023-02-01T14:14:06;5.68;;;2.28;;
53409;SDS011;66590;50.734;4.246;2023-02-01T14:23:12;10.57;;;3.03;;
53409;SDS011;66590;50.734;4.246;2023-02-01T14:25:56;13.00;;;2.90;;
53409;SDS011;66590;50.734;4.246;2023-02-01T14:28:32;9.55;;;2.33;;
53409;SDS011;66590;50.734;4.246;2023-02-01T14:31:13;12.52;;;2.88;;
53409;SDS011;66590;50.734;4.246;2023-02-01T14:33:54;15.65;;;2.80;;
53409;SDS011;66590;50.734;4.246;2023-02-01T14:36:23;8.55;;;2.85;;
53409;SDS011;66590;50.734;4.246;2023-02-01T14:38:52;10.25;;;2.88;;
53409;SDS011;66590;50.734;4.246;2023-02-01T14:41:28;13.60;;;3.15;;
53409;SDS011;66590;50.734;4.246;2023-02-01T14:44:21;11.55;;;2.88;;
53409;SDS011;66590;50.734;4.246;2023-02-01T14:49:56;11.82;;;2.65;;
53409;SDS011;66590;50.734;4.246;2023-02-01T14:52:31;15.80;;;2.78;;
53409;SDS011;66590;50.734;4.246;2023-02-01T14:55:04;11.70;;;2.97;;
53409;SDS011;66590;50.734;4.246;2023-02-01T14:57:33;13.45;;;3.28;;
53409;SDS011;66590;50.734;4.246;2023-02-01T15:00:06;14.60;;;3.10;;
53409;SDS011;66590;50.734;4.246;2023-02-01T15:02:42;12.48;;;3.63;;
53409;SDS011;66590;50.734;4.246;2023-02-01T15:05:29;12.55;;;2.97;;
53409;SDS011;66590;50.734;4.246;2023-02-01T15:07:58;11.73;;;3.38;;
53409;SDS011;66590;50.734;4.246;2023-02-01T15:10:33;12.05;;;3.25;;
53409;SDS011;66590;50.734;4.246;2023-02-01T15:13:20;8.93;;;3.00;;
53409;SDS011;66590;50.734;4.246;2023-02-01T15:16:05;10.00;;;2.60;;
53409;SDS011;66590;50.734;4.246;2023-02-01T15:18:37;11.63;;;2.83;;
53409;SDS011;66590;50.734;4.246;2023-02-01T15:21:05;10.63;;;2.95;;
53409;SDS011;66590;50.734;4.246;2023-02-01T15:26:40;9.82;;;2.60;;